sensor_id;sensor_type;location;lat;lon;timestamp;temperature;humidity
52656;SHT85;35474;51.032;6.998;2024-01-06T00:01:15;7.00;88.85
52656;SHT85;35474;51.032;6.998;2024-01-06T00:03:43;7.00;88.58
52656;SHT85;35474;51.032;6.998;2024-01-06T00:06:14;7.07;88.71
52656;SHT85;35474;51.032;6.998;2024-01-06T00:08:41;7.12;88.56
52656;SHT85;35474;51.032;6.998;2024-01-06T00:11:08;6.99;88.55
52656;SHT85;35474;51.032;6.998;2024-01-06T00:13:36;7.05;88.74
52656;SHT85;35474;51.032;6.998;2024-01-06T00:16:03;7.02;88.70
52656;SHT85;35474;51.032;6.998;2024-01-06T00:18:30;7.03;88.70
52656;SHT85;35474;51.032;6.998;2024-01-06T00:20:57;7.06;88.57
52656;SHT85;35474;51.032;6.998;2024-01-06T00:23:24;7.05;88.58
52656;SHT85;35474;51.032;6.998;2024-01-06T00:25:51;7.06;88.59
52656;SHT85;35474;51.032;6.998;2024-01-06T00:28:18;7.12;88.71
52656;SHT85;35474;51.032;6.998;2024-01-06T00:30:44;7.07;89.07
52656;SHT85;35474;51.032;6.998;2024-01-06T00:33:12;6.82;90.44
52656;SHT85;35474;51.032;6.998;2024-01-06T00:35:39;6.75;91.61
52656;SHT85;35474;51.032;6.998;2024-01-06T00:38:06;6.78;92.28
52656;SHT85;35474;51.032;6.998;2024-01-06T00:40:32;6.72;92.59
52656;SHT85;35474;51.032;6.998;2024-01-06T00:42:59;6.68;93.09
52656;SHT85;35474;51.032;6.998;2024-01-06T00:45:27;6.65;93.36
52656;SHT85;35474;51.032;6.998;2024-01-06T00:47:54;6.60;93.51
52656;SHT85;35474;51.032;6.998;2024-01-06T00:50:23;6.64;93.81
52656;SHT85;35474;51.032;6.998;2024-01-06T00:52:53;6.63;94.07
52656;SHT85;35474;51.032;6.998;2024-01-06T00:55:20;6.60;94.40
52656;SHT85;35474;51.032;6.998;2024-01-06T01:00:35;6.52;94.90
52656;SHT85;35474;51.032;6.998;2024-01-06T01:03:09;6.51;95.10
52656;SHT85;35474;51.032;6.998;2024-01-06T01:05:36;6.45;95.10
52656;SHT85;35474;51.032;6.998;2024-01-06T01:08:04;6.47;95.19
52656;SHT85;35474;51.032;6.998;2024-01-06T01:10:38;6.48;95.28
52656;SHT85;35474;51.032;6.998;2024-01-06T01:13:05;6.48;95.44
52656;SHT85;35474;51.032;6.998;2024-01-06T01:15:47;6.47;95.70
52656;SHT85;35474;51.032;6.998;2024-01-06T01:18:14;6.49;95.73
52656;SHT85;35474;51.032;6.998;2024-01-06T01:20:54;6.45;95.74
52656;SHT85;35474;51.032;6.998;2024-01-06T01:23:21;6.45;95.84
52656;SHT85;35474;51.032;6.998;2024-01-06T01:25:48;6.45;95.91
52656;SHT85;35474;51.032;6.998;2024-01-06T01:28:15;6.49;95.92
52656;SHT85;35474;51.032;6.998;2024-01-06T01:30:42;6.54;95.94
52656;SHT85;35474;51.032;6.998;2024-01-06T01:33:08;6.54;96.02
52656;SHT85;35474;51.032;6.998;2024-01-06T01:35:35;6.49;96.02
52656;SHT85;35474;51.032;6.998;2024-01-06T01:38:01;6.51;96.06
52656;SHT85;35474;51.032;6.998;2024-01-06T01:40:29;6.54;96.09
52656;SHT85;35474;51.032;6.998;2024-01-06T01:42:57;6.63;96.15
52656;SHT85;35474;51.032;6.998;2024-01-06T01:45:26;6.55;96.03
52656;SHT85;35474;51.032;6.998;2024-01-06T01:47:53;6.55;95.99
52656;SHT85;35474;51.032;6.998;2024-01-06T01:50:19;6.54;95.98
52656;SHT85;35474;51.032;6.998;2024-01-06T01:52:51;6.56;95.98
52656;SHT85;35474;51.032;6.998;2024-01-06T01:55:19;6.55;96.06
52656;SHT85;35474;51.032;6.998;2024-01-06T01:57:46;6.58;96.21
52656;SHT85;35474;51.032;6.998;2024-01-06T02:00:23;6.58;96.23
52656;SHT85;35474;51.032;6.998;2024-01-06T02:02:52;6.60;96.24
52656;SHT85;35474;51.032;6.998;2024-01-06T02:05:19;6.60;96.25
52656;SHT85;35474;51.032;6.998;2024-01-06T02:07:45;6.56;96.27
52656;SHT85;35474;51.032;6.998;2024-01-06T02:10:15;6.49;96.31
52656;SHT85;35474;51.032;6.998;2024-01-06T02:12:43;6.55;96.37
52656;SHT85;35474;51.032;6.998;2024-01-06T02:15:10;6.56;96.44
52656;SHT85;35474;51.032;6.998;2024-01-06T02:17:37;6.55;96.48
52656;SHT85;35474;51.032;6.998;2024-01-06T02:20:06;6.54;96.38
52656;SHT85;35474;51.032;6.998;2024-01-06T02:22:35;6.60;96.30
52656;SHT85;35474;51.032;6.998;2024-01-06T02:25:03;6.61;96.35
52656;SHT85;35474;51.032;6.998;2024-01-06T02:27:38;6.63;96.24
52656;SHT85;35474;51.032;6.998;2024-01-06T02:30:05;6.60;96.22
52656;SHT85;35474;51.032;6.998;2024-01-06T02:32:34;6.65;96.11
52656;SHT85;35474;51.032;6.998;2024-01-06T02:35:00;6.68;96.09
52656;SHT85;35474;51.032;6.998;2024-01-06T02:37:27;6.69;96.02
52656;SHT85;35474;51.032;6.998;2024-01-06T02:39:53;6.69;95.96
52656;SHT85;35474;51.032;6.998;2024-01-06T02:42:20;6.69;95.88
52656;SHT85;35474;51.032;6.998;2024-01-06T02:44:47;6.69;95.70
52656;SHT85;35474;51.032;6.998;2024-01-06T02:47:13;6.72;95.64
52656;SHT85;35474;51.032;6.998;2024-01-06T02:49:42;6.75;95.63
52656;SHT85;35474;51.032;6.998;2024-01-06T02:52:09;6.71;95.67
52656;SHT85;35474;51.032;6.998;2024-01-06T02:54:36;6.75;95.48
52656;SHT85;35474;51.032;6.998;2024-01-06T02:57:02;6.76;95.46
52656;SHT85;35474;51.032;6.998;2024-01-06T02:59:29;6.76;95.47
52656;SHT85;35474;51.032;6.998;2024-01-06T03:01:56;6.82;95.43
52656;SHT85;35474;51.032;6.998;2024-01-06T03:04:23;6.79;95.26
52656;SHT85;35474;51.032;6.998;2024-01-06T03:06:49;6.84;95.31
52656;SHT85;35474;51.032;6.998;2024-01-06T03:09:19;6.84;95.32
52656;SHT85;35474;51.032;6.998;2024-01-06T03:11:46;6.84;95.19
52656;SHT85;35474;51.032;6.998;2024-01-06T03:14:13;6.86;95.10
52656;SHT85;35474;51.032;6.998;2024-01-06T03:16:39;6.91;95.02
52656;SHT85;35474;51.032;6.998;2024-01-06T03:19:07;6.92;94.88
52656;SHT85;35474;51.032;6.998;2024-01-06T03:21:33;6.93;94.77
52656;SHT85;35474;51.032;6.998;2024-01-06T03:24:00;6.93;94.57
52656;SHT85;35474;51.032;6.998;2024-01-06T03:26:27;6.93;94.69
52656;SHT85;35474;51.032;6.998;2024-01-06T03:28:58;6.96;94.66
52656;SHT85;35474;51.032;6.998;2024-01-06T03:31:29;6.95;94.66
52656;SHT85;35474;51.032;6.998;2024-01-06T03:33:56;6.91;94.74
52656;SHT85;35474;51.032;6.998;2024-01-06T03:36:22;6.92;94.90
52656;SHT85;35474;51.032;6.998;2024-01-06T03:38:50;6.92;94.96
52656;SHT85;35474;51.032;6.998;2024-01-06T03:41:17;6.89;95.02
52656;SHT85;35474;51.032;6.998;2024-01-06T03:43:43;6.92;95.17
52656;SHT85;35474;51.032;6.998;2024-01-06T03:46:10;6.99;95.07
52656;SHT85;35474;51.032;6.998;2024-01-06T03:48:36;6.92;95.12
52656;SHT85;35474;51.032;6.998;2024-01-06T03:51:03;6.97;95.16
52656;SHT85;35474;51.032;6.998;2024-01-06T03:53:30;6.93;95.17
52656;SHT85;35474;51.032;6.998;2024-01-06T03:55:56;6.97;95.32
52656;SHT85;35474;51.032;6.998;2024-01-06T03:58:23;6.91;95.37
52656;SHT85;35474;51.032;6.998;2024-01-06T04:00:51;6.92;95.34
52656;SHT85;35474;51.032;6.998;2024-01-06T04:03:17;6.96;95.47
52656;SHT85;35474;51.032;6.998;2024-01-06T04:05:44;7.02;95.54
52656;SHT85;35474;51.032;6.998;2024-01-06T04:08:12;7.13;95.60
52656;SHT85;35474;51.032;6.998;2024-01-06T04:10:38;7.16;95.48
52656;SHT85;35474;51.032;6.998;2024-01-06T04:13:05;7.22;95.51
52656;SHT85;35474;51.032;6.998;2024-01-06T04:15:32;7.17;95.24
52656;SHT85;35474;51.032;6.998;2024-01-06T04:18:03;7.16;95.30
52656;SHT85;35474;51.032;6.998;2024-01-06T04:20:31;7.07;95.21
52656;SHT85;35474;51.032;6.998;2024-01-06T04:22:58;7.03;95.34
52656;SHT85;35474;51.032;6.998;2024-01-06T04:25:25;7.02;95.41
52656;SHT85;35474;51.032;6.998;2024-01-06T04:27:52;7.02;95.41
52656;SHT85;35474;51.032;6.998;2024-01-06T04:30:19;7.07;95.35
52656;SHT85;35474;51.032;6.998;2024-01-06T04:32:47;7.00;95.42
52656;SHT85;35474;51.032;6.998;2024-01-06T04:35:14;7.00;95.48
52656;SHT85;35474;51.032;6.998;2024-01-06T04:37:41;7.00;95.57
52656;SHT85;35474;51.032;6.998;2024-01-06T04:40:08;6.99;95.69
52656;SHT85;35474;51.032;6.998;2024-01-06T04:42:35;7.02;95.84
52656;SHT85;35474;51.032;6.998;2024-01-06T04:45:03;6.96;95.88
52656;SHT85;35474;51.032;6.998;2024-01-06T04:47:30;6.91;95.84
52656;SHT85;35474;51.032;6.998;2024-01-06T04:49:57;6.89;96.01
52656;SHT85;35474;51.032;6.998;2024-01-06T04:52:23;6.88;96.04
52656;SHT85;35474;51.032;6.998;2024-01-06T04:54:52;6.88;96.02
52656;SHT85;35474;51.032;6.998;2024-01-06T04:57:19;6.88;96.03
52656;SHT85;35474;51.032;6.998;2024-01-06T04:59:47;6.82;95.97
52656;SHT85;35474;51.032;6.998;2024-01-06T05:02:13;6.81;96.02
52656;SHT85;35474;51.032;6.998;2024-01-06T05:04:40;6.74;96.05
52656;SHT85;35474;51.032;6.998;2024-01-06T05:07:07;6.79;96.13
52656;SHT85;35474;51.032;6.998;2024-01-06T05:09:33;6.61;95.92
52656;SHT85;35474;51.032;6.998;2024-01-06T05:12:00;6.49;95.48
52656;SHT85;35474;51.032;6.998;2024-01-06T05:14:26;6.23;94.38
52656;SHT85;35474;51.032;6.998;2024-01-06T05:16:53;6.11;94.22
52656;SHT85;35474;51.032;6.998;2024-01-06T05:19:20;5.93;93.69
52656;SHT85;35474;51.032;6.998;2024-01-06T05:21:47;5.99;93.69
52656;SHT85;35474;51.032;6.998;2024-01-06T05:24:15;5.93;93.38
52656;SHT85;35474;51.032;6.998;2024-01-06T05:26:41;6.02;93.53
52656;SHT85;35474;51.032;6.998;2024-01-06T05:29:08;6.00;93.12
52656;SHT85;35474;51.032;6.998;2024-01-06T05:31:34;6.03;93.07
52656;SHT85;35474;51.032;6.998;2024-01-06T05:34:01;5.96;92.85
52656;SHT85;35474;51.032;6.998;2024-01-06T05:36:28;6.04;92.88
52656;SHT85;35474;51.032;6.998;2024-01-06T05:38:56;6.10;92.86
52656;SHT85;35474;51.032;6.998;2024-01-06T05:41:22;6.13;92.71
52656;SHT85;35474;51.032;6.998;2024-01-06T05:43:49;6.04;92.57
52656;SHT85;35474;51.032;6.998;2024-01-06T05:46:22;6.13;92.65
52656;SHT85;35474;51.032;6.998;2024-01-06T05:48:50;5.99;92.73
52656;SHT85;35474;51.032;6.998;2024-01-06T05:51:17;5.86;92.94
52656;SHT85;35474;51.032;6.998;2024-01-06T05:53:43;5.87;93.05
52656;SHT85;35474;51.032;6.998;2024-01-06T05:56:10;5.80;93.17
52656;SHT85;35474;51.032;6.998;2024-01-06T05:58:37;5.75;93.40
52656;SHT85;35474;51.032;6.998;2024-01-06T06:01:05;5.67;93.46
52656;SHT85;35474;51.032;6.998;2024-01-06T06:03:32;5.72;93.81
52656;SHT85;35474;51.032;6.998;2024-01-06T06:05:58;5.58;93.96
52656;SHT85;35474;51.032;6.998;2024-01-06T06:08:25;5.58;93.65
52656;SHT85;35474;51.032;6.998;2024-01-06T06:10:52;5.63;93.29
52656;SHT85;35474;51.032;6.998;2024-01-06T06:13:28;5.56;93.06
52656;SHT85;35474;51.032;6.998;2024-01-06T06:15:54;5.59;93.13
52656;SHT85;35474;51.032;6.998;2024-01-06T06:18:22;5.54;93.22
52656;SHT85;35474;51.032;6.998;2024-01-06T06:20:50;5.39;92.93
52656;SHT85;35474;51.032;6.998;2024-01-06T06:23:16;5.51;92.89
52656;SHT85;35474;51.032;6.998;2024-01-06T06:25:43;5.51;92.98
52656;SHT85;35474;51.032;6.998;2024-01-06T06:28:09;5.48;92.98
52656;SHT85;35474;51.032;6.998;2024-01-06T06:30:36;5.52;92.99
52656;SHT85;35474;51.032;6.998;2024-01-06T06:33:03;5.48;93.13
52656;SHT85;35474;51.032;6.998;2024-01-06T06:35:30;5.46;93.31
52656;SHT85;35474;51.032;6.998;2024-01-06T06:37:56;5.44;93.54
52656;SHT85;35474;51.032;6.998;2024-01-06T06:40:23;5.39;93.61
52656;SHT85;35474;51.032;6.998;2024-01-06T06:42:50;5.44;93.71
52656;SHT85;35474;51.032;6.998;2024-01-06T06:45:17;5.48;93.83
52656;SHT85;35474;51.032;6.998;2024-01-06T06:47:47;5.51;93.79
52656;SHT85;35474;51.032;6.998;2024-01-06T06:50:16;5.51;93.79
52656;SHT85;35474;51.032;6.998;2024-01-06T06:52:44;5.49;93.61
52656;SHT85;35474;51.032;6.998;2024-01-06T06:55:11;5.38;93.63
52656;SHT85;35474;51.032;6.998;2024-01-06T06:57:37;5.48;93.83
52656;SHT85;35474;51.032;6.998;2024-01-06T07:00:05;5.52;93.70
52656;SHT85;35474;51.032;6.998;2024-01-06T07:02:33;5.54;93.65
52656;SHT85;35474;51.032;6.998;2024-01-06T07:05:00;5.56;93.66
52656;SHT85;35474;51.032;6.998;2024-01-06T07:07:27;5.55;93.57
52656;SHT85;35474;51.032;6.998;2024-01-06T07:09:53;5.60;93.68
52656;SHT85;35474;51.032;6.998;2024-01-06T07:12:20;5.54;93.44
52656;SHT85;35474;51.032;6.998;2024-01-06T07:14:47;5.54;92.92
52656;SHT85;35474;51.032;6.998;2024-01-06T07:17:13;5.58;93.01
52656;SHT85;35474;51.032;6.998;2024-01-06T07:19:40;5.66;92.74
52656;SHT85;35474;51.032;6.998;2024-01-06T07:22:06;5.58;92.28
52656;SHT85;35474;51.032;6.998;2024-01-06T07:24:33;5.51;91.99
52656;SHT85;35474;51.032;6.998;2024-01-06T07:26:59;5.51;91.77
52656;SHT85;35474;51.032;6.998;2024-01-06T07:32:34;5.52;91.85
52656;SHT85;35474;51.032;6.998;2024-01-06T07:35:01;5.54;91.80
52656;SHT85;35474;51.032;6.998;2024-01-06T07:37:33;5.60;91.85
52656;SHT85;35474;51.032;6.998;2024-01-06T07:40:00;5.54;91.54
52656;SHT85;35474;51.032;6.998;2024-01-06T07:42:27;5.55;91.75
52656;SHT85;35474;51.032;6.998;2024-01-06T07:44:54;5.55;91.88
52656;SHT85;35474;51.032;6.998;2024-01-06T07:47:21;5.52;91.85
52656;SHT85;35474;51.032;6.998;2024-01-06T07:49:47;5.56;91.81
52656;SHT85;35474;51.032;6.998;2024-01-06T07:52:14;5.62;91.85
52656;SHT85;35474;51.032;6.998;2024-01-06T07:54:41;5.59;91.94
52656;SHT85;35474;51.032;6.998;2024-01-06T07:57:08;5.60;91.83
52656;SHT85;35474;51.032;6.998;2024-01-06T07:59:35;5.59;91.53
52656;SHT85;35474;51.032;6.998;2024-01-06T08:02:02;5.54;91.73
52656;SHT85;35474;51.032;6.998;2024-01-06T08:04:29;5.48;91.63
52656;SHT85;35474;51.032;6.998;2024-01-06T08:06:56;5.59;91.82
52656;SHT85;35474;51.032;6.998;2024-01-06T08:09:23;5.60;91.87
52656;SHT85;35474;51.032;6.998;2024-01-06T08:11:53;5.52;91.77
52656;SHT85;35474;51.032;6.998;2024-01-06T08:14:20;5.63;91.88
52656;SHT85;35474;51.032;6.998;2024-01-06T08:16:47;5.59;91.99
52656;SHT85;35474;51.032;6.998;2024-01-06T08:19:13;5.56;91.80
52656;SHT85;35474;51.032;6.998;2024-01-06T08:21:40;5.52;91.52
52656;SHT85;35474;51.032;6.998;2024-01-06T08:24:07;5.46;91.13
52656;SHT85;35474;51.032;6.998;2024-01-06T08:26:34;5.42;91.30
52656;SHT85;35474;51.032;6.998;2024-01-06T08:29:01;5.42;91.62
52656;SHT85;35474;51.032;6.998;2024-01-06T08:31:27;5.48;91.71
52656;SHT85;35474;51.032;6.998;2024-01-06T08:33:54;5.38;91.89
52656;SHT85;35474;51.032;6.998;2024-01-06T08:36:21;5.35;92.18
52656;SHT85;35474;51.032;6.998;2024-01-06T08:38:48;5.46;92.37
52656;SHT85;35474;51.032;6.998;2024-01-06T08:41:14;5.49;92.34
52656;SHT85;35474;51.032;6.998;2024-01-06T08:43:41;5.39;92.35
52656;SHT85;35474;51.032;6.998;2024-01-06T08:46:07;5.35;92.07
52656;SHT85;35474;51.032;6.998;2024-01-06T08:48:35;5.41;92.04
52656;SHT85;35474;51.032;6.998;2024-01-06T08:51:03;5.37;91.73
52656;SHT85;35474;51.032;6.998;2024-01-06T08:53:32;5.35;91.72
52656;SHT85;35474;51.032;6.998;2024-01-06T08:55:58;5.35;91.88
52656;SHT85;35474;51.032;6.998;2024-01-06T08:58:25;5.31;91.70
52656;SHT85;35474;51.032;6.998;2024-01-06T09:00:52;5.30;91.75
52656;SHT85;35474;51.032;6.998;2024-01-06T09:03:19;5.34;91.77
52656;SHT85;35474;51.032;6.998;2024-01-06T09:05:53;5.25;91.78
52656;SHT85;35474;51.032;6.998;2024-01-06T09:08:21;5.18;92.22
52656;SHT85;35474;51.032;6.998;2024-01-06T09:10:48;5.27;92.49
52656;SHT85;35474;51.032;6.998;2024-01-06T09:13:17;5.34;92.39
52656;SHT85;35474;51.032;6.998;2024-01-06T09:15:44;5.14;92.28
52656;SHT85;35474;51.032;6.998;2024-01-06T09:18:11;5.18;92.72
52656;SHT85;35474;51.032;6.998;2024-01-06T09:20:39;5.11;93.06
52656;SHT85;35474;51.032;6.998;2024-01-06T09:23:06;5.13;93.31
52656;SHT85;35474;51.032;6.998;2024-01-06T09:25:33;5.32;93.45
52656;SHT85;35474;51.032;6.998;2024-01-06T09:28:00;5.24;93.47
52656;SHT85;35474;51.032;6.998;2024-01-06T09:30:27;5.32;93.42
52656;SHT85;35474;51.032;6.998;2024-01-06T09:32:54;5.30;93.34
52656;SHT85;35474;51.032;6.998;2024-01-06T09:35:20;5.25;93.46
52656;SHT85;35474;51.032;6.998;2024-01-06T09:37:47;5.21;93.26
52656;SHT85;35474;51.032;6.998;2024-01-06T09:40:14;5.35;93.20
52656;SHT85;35474;51.032;6.998;2024-01-06T09:42:48;5.32;93.38
52656;SHT85;35474;51.032;6.998;2024-01-06T09:45:16;5.30;93.41
52656;SHT85;35474;51.032;6.998;2024-01-06T09:47:43;5.34;93.42
52656;SHT85;35474;51.032;6.998;2024-01-06T09:50:17;5.42;93.57
52656;SHT85;35474;51.032;6.998;2024-01-06T09:52:48;5.59;93.43
52656;SHT85;35474;51.032;6.998;2024-01-06T09:55:24;5.48;93.19
52656;SHT85;35474;51.032;6.998;2024-01-06T09:57:53;5.49;93.06
52656;SHT85;35474;51.032;6.998;2024-01-06T10:00:21;5.32;92.94
52656;SHT85;35474;51.032;6.998;2024-01-06T10:02:48;5.41;93.12
52656;SHT85;35474;51.032;6.998;2024-01-06T10:05:15;5.37;93.26
52656;SHT85;35474;51.032;6.998;2024-01-06T10:07:44;5.30;93.15
52656;SHT85;35474;51.032;6.998;2024-01-06T10:10:11;5.45;93.49
52656;SHT85;35474;51.032;6.998;2024-01-06T10:12:38;5.48;93.56
52656;SHT85;35474;51.032;6.998;2024-01-06T10:15:10;5.45;93.34
52656;SHT85;35474;51.032;6.998;2024-01-06T10:17:39;5.39;92.95
52656;SHT85;35474;51.032;6.998;2024-01-06T10:20:10;5.32;92.99
52656;SHT85;35474;51.032;6.998;2024-01-06T10:22:39;5.30;92.69
52656;SHT85;35474;51.032;6.998;2024-01-06T10:25:10;5.17;92.65
52656;SHT85;35474;51.032;6.998;2024-01-06T10:27:37;5.30;92.86
52656;SHT85;35474;51.032;6.998;2024-01-06T10:30:07;5.28;92.77
52656;SHT85;35474;51.032;6.998;2024-01-06T10:32:35;5.32;92.85
52656;SHT85;35474;51.032;6.998;2024-01-06T10:35:03;5.30;92.67
52656;SHT85;35474;51.032;6.998;2024-01-06T10:37:32;5.31;92.70
52656;SHT85;35474;51.032;6.998;2024-01-06T10:40:11;5.30;92.63
52656;SHT85;35474;51.032;6.998;2024-01-06T10:42:40;5.32;92.27
52656;SHT85;35474;51.032;6.998;2024-01-06T10:45:10;5.37;92.46
52656;SHT85;35474;51.032;6.998;2024-01-06T10:47:38;5.38;92.22
52656;SHT85;35474;51.032;6.998;2024-01-06T10:50:10;5.42;92.07
52656;SHT85;35474;51.032;6.998;2024-01-06T10:52:37;5.44;92.18
52656;SHT85;35474;51.032;6.998;2024-01-06T10:55:07;5.55;92.20
52656;SHT85;35474;51.032;6.998;2024-01-06T10:57:37;5.55;92.03
52656;SHT85;35474;51.032;6.998;2024-01-06T11:00:05;5.62;91.85
52656;SHT85;35474;51.032;6.998;2024-01-06T11:02:32;5.51;91.76
52656;SHT85;35474;51.032;6.998;2024-01-06T11:05:00;5.51;91.85
52656;SHT85;35474;51.032;6.998;2024-01-06T11:07:30;5.45;91.79
52656;SHT85;35474;51.032;6.998;2024-01-06T11:09:57;5.39;91.69
52656;SHT85;35474;51.032;6.998;2024-01-06T11:12:25;5.46;91.84
52656;SHT85;35474;51.032;6.998;2024-01-06T11:14:55;5.30;91.71
52656;SHT85;35474;51.032;6.998;2024-01-06T11:20:25;5.37;91.79
52656;SHT85;35474;51.032;6.998;2024-01-06T11:22:53;5.28;91.85
52656;SHT85;35474;51.032;6.998;2024-01-06T11:25:20;5.30;91.89
52656;SHT85;35474;51.032;6.998;2024-01-06T11:27:49;5.35;92.09
52656;SHT85;35474;51.032;6.998;2024-01-06T11:30:21;5.28;91.97
52656;SHT85;35474;51.032;6.998;2024-01-06T11:32:52;5.25;91.83
52656;SHT85;35474;51.032;6.998;2024-01-06T11:35:20;5.38;92.04
52656;SHT85;35474;51.032;6.998;2024-01-06T11:43:01;5.44;91.98
52656;SHT85;35474;51.032;6.998;2024-01-06T11:45:29;5.49;91.83
52656;SHT85;35474;51.032;6.998;2024-01-06T11:47:57;5.32;91.56
52656;SHT85;35474;51.032;6.998;2024-01-06T11:50:33;5.34;91.50
52656;SHT85;35474;51.032;6.998;2024-01-06T11:53:01;5.24;91.23
52656;SHT85;35474;51.032;6.998;2024-01-06T11:55:29;5.21;91.28
52656;SHT85;35474;51.032;6.998;2024-01-06T11:57:58;5.17;91.19
52656;SHT85;35474;51.032;6.998;2024-01-06T12:00:29;5.18;91.36
52656;SHT85;35474;51.032;6.998;2024-01-06T12:02:57;5.23;91.67
52656;SHT85;35474;51.032;6.998;2024-01-06T12:05:24;5.25;91.38
52656;SHT85;35474;51.032;6.998;2024-01-06T12:07:56;5.14;91.44
52656;SHT85;35474;51.032;6.998;2024-01-06T12:10:25;5.16;91.67
52656;SHT85;35474;51.032;6.998;2024-01-06T12:13:10;5.11;91.51
52656;SHT85;35474;51.032;6.998;2024-01-06T12:15:41;5.01;91.34
52656;SHT85;35474;51.032;6.998;2024-01-06T12:18:07;4.96;91.36
52656;SHT85;35474;51.032;6.998;2024-01-06T12:20:34;4.93;91.52
52656;SHT85;35474;51.032;6.998;2024-01-06T12:23:01;4.96;91.39
52656;SHT85;35474;51.032;6.998;2024-01-06T12:25:32;4.94;91.65
52656;SHT85;35474;51.032;6.998;2024-01-06T12:28:06;4.90;91.71
52656;SHT85;35474;51.032;6.998;2024-01-06T12:30:33;4.96;91.94
52656;SHT85;35474;51.032;6.998;2024-01-06T12:33:00;4.93;92.08
52656;SHT85;35474;51.032;6.998;2024-01-06T12:35:27;4.88;92.28
52656;SHT85;35474;51.032;6.998;2024-01-06T12:37:54;5.04;92.40
52656;SHT85;35474;51.032;6.998;2024-01-06T12:40:22;4.98;92.36
52656;SHT85;35474;51.032;6.998;2024-01-06T12:42:51;4.80;92.23
52656;SHT85;35474;51.032;6.998;2024-01-06T12:45:17;4.77;92.12
52656;SHT85;35474;51.032;6.998;2024-01-06T12:47:44;4.80;92.06
52656;SHT85;35474;51.032;6.998;2024-01-06T12:50:11;4.80;91.94
52656;SHT85;35474;51.032;6.998;2024-01-06T12:52:38;4.76;91.66
52656;SHT85;35474;51.032;6.998;2024-01-06T12:55:06;4.76;91.25
52656;SHT85;35474;51.032;6.998;2024-01-06T12:57:33;4.90;91.21
52656;SHT85;35474;51.032;6.998;2024-01-06T13:00:00;4.86;90.89
52656;SHT85;35474;51.032;6.998;2024-01-06T13:02:30;4.69;90.00
52656;SHT85;35474;51.032;6.998;2024-01-06T13:04:57;4.72;90.18
52656;SHT85;35474;51.032;6.998;2024-01-06T13:07:24;4.79;90.25
52656;SHT85;35474;51.032;6.998;2024-01-06T13:09:53;4.80;90.01
52656;SHT85;35474;51.032;6.998;2024-01-06T13:12:20;4.79;89.56
52656;SHT85;35474;51.032;6.998;2024-01-06T13:14:49;4.73;89.41
52656;SHT85;35474;51.032;6.998;2024-01-06T13:17:17;4.79;89.62
52656;SHT85;35474;51.032;6.998;2024-01-06T13:19:43;4.84;89.75
52656;SHT85;35474;51.032;6.998;2024-01-06T13:22:10;4.88;89.84
52656;SHT85;35474;51.032;6.998;2024-01-06T13:24:36;4.81;89.69
52656;SHT85;35474;51.032;6.998;2024-01-06T13:27:04;4.72;89.76
52656;SHT85;35474;51.032;6.998;2024-01-06T13:29:31;4.70;90.00
52656;SHT85;35474;51.032;6.998;2024-01-06T13:31:59;4.69;90.01
52656;SHT85;35474;51.032;6.998;2024-01-06T13:34:26;4.77;90.17
52656;SHT85;35474;51.032;6.998;2024-01-06T13:36:53;4.73;89.90
52656;SHT85;35474;51.032;6.998;2024-01-06T13:39:22;4.72;89.68
52656;SHT85;35474;51.032;6.998;2024-01-06T13:41:50;4.72;89.65
52656;SHT85;35474;51.032;6.998;2024-01-06T13:44:18;4.77;89.93
52656;SHT85;35474;51.032;6.998;2024-01-06T13:46:44;4.76;89.66
52656;SHT85;35474;51.032;6.998;2024-01-06T13:49:11;4.72;89.52
52656;SHT85;35474;51.032;6.998;2024-01-06T13:51:39;4.76;89.59
52656;SHT85;35474;51.032;6.998;2024-01-06T13:54:06;4.67;89.39
52656;SHT85;35474;51.032;6.998;2024-01-06T13:56:33;4.63;89.44
52656;SHT85;35474;51.032;6.998;2024-01-06T13:58:59;4.67;89.82
52656;SHT85;35474;51.032;6.998;2024-01-06T14:01:26;4.63;89.87
52656;SHT85;35474;51.032;6.998;2024-01-06T14:03:54;4.50;90.17
52656;SHT85;35474;51.032;6.998;2024-01-06T14:06:25;4.49;90.36
52656;SHT85;35474;51.032;6.998;2024-01-06T14:08:56;4.49;90.44
52656;SHT85;35474;51.032;6.998;2024-01-06T14:11:23;4.52;90.47
52656;SHT85;35474;51.032;6.998;2024-01-06T14:13:52;4.39;90.38
52656;SHT85;35474;51.032;6.998;2024-01-06T14:16:20;4.45;90.56
52656;SHT85;35474;51.032;6.998;2024-01-06T14:18:47;4.44;90.98
52656;SHT85;35474;51.032;6.998;2024-01-06T14:21:14;4.45;90.76
52656;SHT85;35474;51.032;6.998;2024-01-06T14:23:41;4.39;90.78
52656;SHT85;35474;51.032;6.998;2024-01-06T14:26:08;4.34;91.07
52656;SHT85;35474;51.032;6.998;2024-01-06T14:28:35;4.28;91.31
52656;SHT85;35474;51.032;6.998;2024-01-06T14:31:01;4.28;91.63
52656;SHT85;35474;51.032;6.998;2024-01-06T14:33:29;4.29;91.65
52656;SHT85;35474;51.032;6.998;2024-01-06T14:35:55;4.31;91.55
52656;SHT85;35474;51.032;6.998;2024-01-06T14:38:22;4.19;91.77
52656;SHT85;35474;51.032;6.998;2024-01-06T14:40:48;4.12;91.96
52656;SHT85;35474;51.032;6.998;2024-01-06T14:43:15;4.14;92.07
52656;SHT85;35474;51.032;6.998;2024-01-06T14:45:41;4.12;92.09
52656;SHT85;35474;51.032;6.998;2024-01-06T14:48:08;4.15;92.04
52656;SHT85;35474;51.032;6.998;2024-01-06T14:50:36;4.09;91.90
52656;SHT85;35474;51.032;6.998;2024-01-06T14:53:03;4.05;91.94
52656;SHT85;35474;51.032;6.998;2024-01-06T14:55:30;4.04;91.61
52656;SHT85;35474;51.032;6.998;2024-01-06T14:57:56;4.12;91.84
52656;SHT85;35474;51.032;6.998;2024-01-06T15:00:23;4.02;91.67
52656;SHT85;35474;51.032;6.998;2024-01-06T15:02:51;4.08;91.74
52656;SHT85;35474;51.032;6.998;2024-01-06T15:05:18;4.08;91.81
52656;SHT85;35474;51.032;6.998;2024-01-06T15:07:44;4.11;91.80
52656;SHT85;35474;51.032;6.998;2024-01-06T15:10:12;4.14;91.73
52656;SHT85;35474;51.032;6.998;2024-01-06T15:12:40;4.11;91.60
52656;SHT85;35474;51.032;6.998;2024-01-06T15:15:07;3.94;91.65
52656;SHT85;35474;51.032;6.998;2024-01-06T15:17:34;3.95;91.94
52656;SHT85;35474;51.032;6.998;2024-01-06T15:20:04;3.91;92.01
52656;SHT85;35474;51.032;6.998;2024-01-06T15:22:31;3.88;92.14
52656;SHT85;35474;51.032;6.998;2024-01-06T15:25:03;3.98;92.36
52656;SHT85;35474;51.032;6.998;2024-01-06T15:27:35;4.01;92.25
52656;SHT85;35474;51.032;6.998;2024-01-06T15:30:01;4.01;92.26
52656;SHT85;35474;51.032;6.998;2024-01-06T15:32:36;3.95;92.23
52656;SHT85;35474;51.032;6.998;2024-01-06T15:35:04;3.98;92.32
52656;SHT85;35474;51.032;6.998;2024-01-06T15:37:31;3.97;92.59
52656;SHT85;35474;51.032;6.998;2024-01-06T15:39:58;3.93;92.54
52656;SHT85;35474;51.032;6.998;2024-01-06T15:42:25;4.01;92.65
52656;SHT85;35474;51.032;6.998;2024-01-06T15:44:52;3.97;92.63
52656;SHT85;35474;51.032;6.998;2024-01-06T15:47:19;3.83;92.61
52656;SHT85;35474;51.032;6.998;2024-01-06T15:49:45;3.71;93.10
52656;SHT85;35474;51.032;6.998;2024-01-06T15:52:12;3.97;93.58
52656;SHT85;35474;51.032;6.998;2024-01-06T15:54:38;4.15;93.47
52656;SHT85;35474;51.032;6.998;2024-01-06T15:57:05;4.04;93.49
52656;SHT85;35474;51.032;6.998;2024-01-06T15:59:31;3.90;93.54
52656;SHT85;35474;51.032;6.998;2024-01-06T16:01:58;3.74;93.58